EDT,Max TemperatureF,Mean TemperatureF,Min TemperatureF,Max Dew PointF,MeanDew PointF,Min DewpointF,Max Humidity, Mean Humidity, Min Humidity, Max Sea Level PressureIn, Mean Sea Level PressureIn, Min Sea Level PressureIn, Max VisibilityMiles, Mean VisibilityMiles, Min VisibilityMiles, Max Wind SpeedMPH, Mean Wind SpeedMPH, Max Gust SpeedMPH,PrecipitationIn, CloudCover, Events, WindDirDegrees
2012-9-1,86,76,66,73,71,68,100,81,61,30.28,30.23,30.16,10,10,1,7,2,24,0.47,2,Rain-Thunderstorm,360
2012-9-2,84,75,66,75,72,68,100,85,69,30.18,30.12,30.06,10,7,0,8,2,18,0.38,4,Fog-Rain-Thunderstorm,123
2012-9-3,79,73,66,75,71,66,100,93,85,30.14,30.09,30.06,10,8,0,14,5,20,T,6,Fog-Rain-Thunderstorm,110
2012-9-4,79,74,68,73,71,70,100,87,74,30.10,30.05,30.00,10,9,2,10,4,17,T,7,Rain-Thunderstorm,166
2012-9-5,83,75,67,73,72,70,100,83,65,30.03,29.98,29.93,10,8,2,6,2,,0.16,6,Rain-Thunderstorm,226
2012-9-6,83,74,64,73,70,66,100,79,58,30.08,30.02,29.96,10,8,4,6,2,,0.43,4,Rain,82
2012-9-7,85,73,61,73,68,64,100,78,55,30.10,30.04,29.96,10,6,0,9,2,,0.00,3,Fog,146
2012-9-8,79,65,50,72,65,54,100,82,63,29.99,29.88,29.82,10,9,2,27,4,40,0.01,3,Rain,265
2012-9-9,71,59,47,57,53,48,100,75,49,30.11,30.02,29.97,10,9,2,13,3,17,0.00,2,,309
2012-9-10,73,60,47,57,52,48,100,72,44,30.27,30.18,30.10,10,10,5,12,4,17,0.00,2,,322
2012-9-11,75,59,43,57,52,45,100,75,49,30.39,30.33,30.27,10,10,7,9,1,,0.00,0,,135
2012-9-12,79,64,48,63,56,50,100,81,47,30.43,30.39,30.34,10,9,0,10,2,,0.00,1,Fog,115
2012-9-13,78,63,47,59,53,48,100,72,43,30.46,30.39,30.34,10,9,2,8,2,,0.00,0,,107
2012-9-14,79,63,47,61,55,48,100,68,36,30.38,30.31,30.24,10,10,7,5,1,,0.00,1,,301
2012-9-15,75,64,53,63,59,55,100,77,54,30.30,30.25,30.20,10,9,2,7,2,,0.00,2,,291
2012-9-16,65,61,56,63,60,57,100,94,87,30.24,30.20,30.15,10,9,2,5,2,,0.03,7,Rain,97
2012-9-17,65,61,57,66,62,59,100,97,93,30.17,30.11,29.97,10,4,0,7,3,,0.79,8,Fog-Rain,110
2012-9-18,70,63,55,70,65,57,100,95,90,29.96,29.83,29.74,10,8,3,14,6,23,1.20,7,Rain,218
2012-9-19,67,57,47,57,52,46,100,75,49,30.20,30.11,29.97,10,10,5,7,2,,0.00,1,,297
2012-9-20,74,61,48,61,57,50,100,79,57,30.22,30.17,30.10,10,9,4,9,2,,0.00,4,,167
2012-9-21,76,62,48,64,58,52,100,77,54,30.16,30.11,30.04,10,7,0,8,2,21,0.00,3,Fog,234
2012-9-22,76,65,54,63,58,45,100,74,48,30.10,30.02,29.96,10,8,4,14,6,27,0.00,2,,267
2012-9-23,64,53,41,46,41,36,92,65,37,30.24,30.17,30.09,10,10,10,12,6,18,0.00,0,,289
2012-9-24,65,50,35,46,42,37,100,70,40,30.30,30.25,30.20,10,10,7,6,1,,0.00,0,,256
2012-9-25,69,53,37,61,49,39,100,77,53,30.30,30.24,30.17,10,9,2,8,1,,0.06,1,Rain-Thunderstorm,259
2012-9-26,79,63,46,66,58,48,100,77,54,30.27,30.24,30.21,10,7,0,8,2,,0.00,1,Fog,244
2012-9-27,80,67,53,66,60,55,100,75,49,30.28,30.23,30.18,10,7,0,6,1,,0.00,3,Fog,282
2012-9-28,71,65,58,66,63,61,100,87,73,30.20,30.14,30.09,10,8,2,9,2,17,0.07,5,Rain-Thunderstorm,275
2012-9-29,70,59,48,63,59,50,100,86,72,30.09,30.03,29.95,10,9,4,7,2,,T,5,Rain,53
2012-9-30,68,54,40,54,49,43,100,74,48,30.01,29.96,29.90,10,9,1,5,2,,0.00,1,,287